createdAt,value
2022-12-31T00:00:39.685Z,2.13
2022-12-31T00:03:12.974Z,1.00
2022-12-31T00:06:02.665Z,0.87
2022-12-31T00:08:29.594Z,0.90
2022-12-31T00:10:56.469Z,1.00
2022-12-31T00:13:24.436Z,2.73
2022-12-31T00:15:52.319Z,1.97
2022-12-31T00:18:20.267Z,0.80
2022-12-31T00:20:47.129Z,1.67
2022-12-31T00:23:14.027Z,2.33
2022-12-31T00:25:40.920Z,0.80
2022-12-31T00:28:07.814Z,2.10
2022-12-31T00:30:34.843Z,0.77
2022-12-31T00:33:01.791Z,1.43
2022-12-31T00:35:36.391Z,0.80
2022-12-31T00:38:03.457Z,5.50
2022-12-31T00:40:30.387Z,0.70
2022-12-31T00:42:57.278Z,1.60
2022-12-31T00:45:24.177Z,0.90
2022-12-31T00:47:51.065Z,1.80
2022-12-31T00:50:19.020Z,2.37
2022-12-31T00:52:46.006Z,2.00
2022-12-31T00:55:24.081Z,1.57
2022-12-31T00:57:55.036Z,0.80
2022-12-31T01:00:37.740Z,1.60
2022-12-31T01:03:05.969Z,1.00
2022-12-31T01:05:36.103Z,1.13
2022-12-31T01:08:05.050Z,0.90
2022-12-31T01:10:51.967Z,1.00
2022-12-31T01:13:22.996Z,2.30
2022-12-31T01:15:49.873Z,1.37
2022-12-31T01:18:16.791Z,1.73
2022-12-31T01:20:44.663Z,0.80
2022-12-31T01:23:11.981Z,1.70
2022-12-31T01:25:41.916Z,0.90
2022-12-31T01:28:10.380Z,0.70
2022-12-31T01:30:40.389Z,1.60
2022-12-31T01:33:07.309Z,1.87
2022-12-31T01:35:37.334Z,0.90
2022-12-31T01:38:04.219Z,0.80
2022-12-31T01:40:31.134Z,0.70
2022-12-31T01:43:46.584Z,1.83
2022-12-31T01:46:31.390Z,1.27
2022-12-31T01:49:11.110Z,1.00
2022-12-31T01:51:39.307Z,1.20
2022-12-31T01:54:10.903Z,2.20
2022-12-31T01:56:58.273Z,1.23
2022-12-31T01:59:27.155Z,1.70
2022-12-31T02:02:01.231Z,2.57
2022-12-31T02:04:29.060Z,0.70
2022-12-31T02:07:06.941Z,1.63
2022-12-31T02:09:36.848Z,1.03
2022-12-31T02:12:04.582Z,5.20
2022-12-31T02:14:43.433Z,1.97
2022-12-31T02:18:20.820Z,1.70
2022-12-31T02:21:09.348Z,3.80
2022-12-31T02:24:06.849Z,1.60
2022-12-31T02:27:13.704Z,0.80
2022-12-31T02:30:18.889Z,1.07
2022-12-31T02:33:13.910Z,0.70
2022-12-31T02:36:06.342Z,1.70
2022-12-31T02:38:40.797Z,2.00
2022-12-31T02:41:36.697Z,1.83
2022-12-31T02:44:26.266Z,1.57
2022-12-31T02:47:21.021Z,2.77
2022-12-31T02:50:30.527Z,3.53
2022-12-31T02:53:29.469Z,1.00
2022-12-31T02:56:06.182Z,0.93
2022-12-31T02:59:21.178Z,1.33
2022-12-31T03:02:16.560Z,1.07
2022-12-31T03:04:49.880Z,0.90
2022-12-31T03:07:25.141Z,4.10
2022-12-31T03:09:52.675Z,2.07
2022-12-31T03:12:44.074Z,2.20
2022-12-31T03:15:22.543Z,0.97
2022-12-31T03:18:01.136Z,0.83
2022-12-31T03:21:00.088Z,0.70
2022-12-31T03:24:16.452Z,1.40
2022-12-31T03:26:43.361Z,1.60
2022-12-31T03:29:10.255Z,1.77
2022-12-31T03:31:37.428Z,0.90
2022-12-31T03:34:04.439Z,5.20
2022-12-31T03:36:31.311Z,5.23
2022-12-31T03:39:02.453Z,4.13
2022-12-31T03:41:29.366Z,3.13
2022-12-31T03:43:56.256Z,1.43
2022-12-31T03:46:24.192Z,2.00
2022-12-31T03:48:55.111Z,1.70
2022-12-31T03:51:22.067Z,1.43
2022-12-31T03:54:03.189Z,2.43
2022-12-31T03:56:30.079Z,0.80
2022-12-31T03:58:58.999Z,0.70
2022-12-31T04:01:26.246Z,0.90
2022-12-31T04:03:56.525Z,2.80
2022-12-31T04:06:32.574Z,0.90
2022-12-31T04:09:01.456Z,1.00
2022-12-31T04:11:33.464Z,1.17
2022-12-31T04:14:00.453Z,1.30
2022-12-31T04:16:32.243Z,2.20
2022-12-31T04:19:13.607Z,3.57
2022-12-31T04:21:40.585Z,2.30
2022-12-31T04:24:08.260Z,1.37
2022-12-31T04:26:35.373Z,2.20
2022-12-31T04:29:02.309Z,0.90
2022-12-31T04:31:29.240Z,1.83
2022-12-31T04:33:56.162Z,1.40
2022-12-31T04:36:27.308Z,1.27
2022-12-31T04:38:57.216Z,1.57
2022-12-31T04:41:27.011Z,2.57
2022-12-31T04:43:57.341Z,0.93
2022-12-31T04:46:31.197Z,1.93
2022-12-31T04:48:59.093Z,0.90
2022-12-31T04:51:28.144Z,3.50
2022-12-31T04:53:55.451Z,0.80
2022-12-31T04:56:22.864Z,1.87
2022-12-31T04:58:50.261Z,1.30
2022-12-31T05:01:17.532Z,0.70
2022-12-31T05:03:44.493Z,0.70
2022-12-31T05:06:17.685Z,0.70
2022-12-31T05:08:45.121Z,0.97
2022-12-31T05:11:27.465Z,1.00
2022-12-31T05:13:58.355Z,0.70
2022-12-31T05:16:25.317Z,1.50
2022-12-31T05:18:52.248Z,2.60
2022-12-31T05:21:21.623Z,1.20
2022-12-31T05:23:49.563Z,1.53
2022-12-31T05:26:17.069Z,0.80
2022-12-31T05:28:44.340Z,0.63
2022-12-31T05:31:18.566Z,0.77
2022-12-31T05:33:45.513Z,1.03
2022-12-31T05:36:12.436Z,0.73
2022-12-31T05:38:48.603Z,0.70
2022-12-31T05:41:16.615Z,1.43
2022-12-31T05:43:43.604Z,0.70
2022-12-31T05:46:10.529Z,1.10
2022-12-31T05:48:37.530Z,0.60
2022-12-31T05:51:13.652Z,1.00
2022-12-31T05:53:40.545Z,1.00
2022-12-31T05:56:07.531Z,0.60
2022-12-31T05:58:34.417Z,1.53
2022-12-31T06:01:01.411Z,0.70
2022-12-31T06:03:28.447Z,0.90
2022-12-31T06:05:55.390Z,0.60
2022-12-31T06:08:23.930Z,1.67
2022-12-31T06:10:51.836Z,0.60
2022-12-31T06:13:21.845Z,0.67
2022-12-31T06:15:48.927Z,1.20
2022-12-31T06:18:17.819Z,1.33
2022-12-31T06:20:44.736Z,6.60
2022-12-31T06:23:11.687Z,2.57
2022-12-31T06:25:38.607Z,5.70
2022-12-31T06:28:06.128Z,0.80
2022-12-31T06:30:38.209Z,2.50
2022-12-31T06:33:05.103Z,0.97
2022-12-31T06:35:40.287Z,1.60
2022-12-31T06:38:07.183Z,1.83
2022-12-31T06:40:37.468Z,1.03
2022-12-31T06:43:04.398Z,1.30
2022-12-31T06:45:31.316Z,1.90
2022-12-31T06:47:58.182Z,1.00
2022-12-31T06:50:25.098Z,3.17
2022-12-31T06:52:51.983Z,1.30
2022-12-31T06:55:19.500Z,1.27
2022-12-31T06:57:46.949Z,0.90
2022-12-31T07:00:14.822Z,1.27
2022-12-31T07:03:23.950Z,2.07
2022-12-31T07:06:11.753Z,1.30
2022-12-31T07:09:12.313Z,4.80
2022-12-31T07:11:57.385Z,1.10
2022-12-31T07:14:58.894Z,1.77
2022-12-31T07:17:52.065Z,1.47
2022-12-31T07:20:20.932Z,1.00
2022-12-31T07:22:50.286Z,2.07
2022-12-31T07:25:18.830Z,1.47
2022-12-31T07:28:23.215Z,0.77
2022-12-31T07:31:32.233Z,1.00
2022-12-31T07:34:02.672Z,1.10
2022-12-31T07:37:00.205Z,1.00
2022-12-31T07:39:45.254Z,3.40
2022-12-31T07:42:25.132Z,1.37
2022-12-31T07:45:28.711Z,1.13
2022-12-31T07:48:02.146Z,1.30
2022-12-31T07:50:30.041Z,1.10
2022-12-31T07:52:57.428Z,0.80
2022-12-31T07:55:24.366Z,1.07
2022-12-31T07:58:19.081Z,0.60
2022-12-31T08:00:46.415Z,1.10
2022-12-31T08:03:33.779Z,1.57
2022-12-31T08:06:10.843Z,1.03
2022-12-31T08:08:56.037Z,0.80
2022-12-31T08:11:47.324Z,1.20
2022-12-31T08:14:15.716Z,0.80
2022-12-31T08:16:43.251Z,5.60
2022-12-31T08:19:39.920Z,1.00
2022-12-31T08:22:21.723Z,1.73
2022-12-31T08:25:16.003Z,1.47
2022-12-31T08:28:07.558Z,1.27
2022-12-31T08:31:01.636Z,1.30
2022-12-31T08:34:07.080Z,1.03
2022-12-31T08:37:03.428Z,0.93
2022-12-31T08:39:54.235Z,1.13
2022-12-31T08:42:50.293Z,0.80
2022-12-31T08:45:32.981Z,3.80
2022-12-31T08:48:24.958Z,2.07
2022-12-31T08:50:53.225Z,1.57
2022-12-31T08:53:20.685Z,4.53
2022-12-31T08:55:51.257Z,2.20
2022-12-31T08:58:48.952Z,6.67
2022-12-31T09:01:22.188Z,14.97
2022-12-31T09:04:01.218Z,2.47
2022-12-31T09:06:38.692Z,2.70
2022-12-31T09:09:23.677Z,5.43
2022-12-31T09:12:11.537Z,1.57
2022-12-31T09:14:56.710Z,1.07
2022-12-31T09:17:32.607Z,3.27
2022-12-31T09:20:00.142Z,2.50
2022-12-31T09:22:27.685Z,1.60
2022-12-31T09:24:54.855Z,3.13
2022-12-31T09:27:43.428Z,1.37
2022-12-31T09:30:13.544Z,1.00
2022-12-31T09:33:33.435Z,1.37
2022-12-31T09:36:20.752Z,1.10
2022-12-31T09:39:23.960Z,1.10
2022-12-31T09:42:20.691Z,2.60
2022-12-31T09:45:38.277Z,0.80
2022-12-31T09:48:55.055Z,1.37
2022-12-31T09:51:29.573Z,0.80
2022-12-31T09:54:23.924Z,2.27
2022-12-31T09:57:17.995Z,1.60
2022-12-31T10:00:22.096Z,0.90
2022-12-31T10:03:24.196Z,1.93
2022-12-31T10:06:19.794Z,3.13
2022-12-31T10:09:16.902Z,0.90
2022-12-31T10:11:55.576Z,1.50
2022-12-31T10:14:58.669Z,0.97
2022-12-31T10:17:53.327Z,3.87
2022-12-31T10:20:45.582Z,1.97
2022-12-31T10:23:41.083Z,1.40
2022-12-31T10:26:22.929Z,2.63
2022-12-31T10:29:14.430Z,1.53
2022-12-31T10:32:14.125Z,4.00
2022-12-31T10:35:11.452Z,0.80
2022-12-31T10:38:19.476Z,1.13
2022-12-31T10:41:23.880Z,2.30
2022-12-31T10:44:18.850Z,1.87
2022-12-31T10:47:07.795Z,0.70
2022-12-31T10:50:04.928Z,1.30
2022-12-31T10:52:52.855Z,0.70
2022-12-31T10:55:51.693Z,2.50
2022-12-31T10:58:59.027Z,0.80
2022-12-31T11:01:45.213Z,1.33
2022-12-31T11:04:53.934Z,1.47
2022-12-31T11:07:41.401Z,3.27
2022-12-31T11:10:50.282Z,2.50
2022-12-31T11:13:46.259Z,1.10
2022-12-31T11:17:03.324Z,1.80
2022-12-31T11:19:48.924Z,1.93
2022-12-31T11:22:51.034Z,0.97
2022-12-31T11:26:08.201Z,2.03
2022-12-31T11:29:17.562Z,0.80
2022-12-31T11:31:59.908Z,1.13
2022-12-31T11:34:51.862Z,1.43
2022-12-31T11:37:37.590Z,3.30
2022-12-31T11:40:53.961Z,2.33
2022-12-31T11:43:47.991Z,0.70
2022-12-31T11:46:52.349Z,1.50
2022-12-31T11:49:49.730Z,1.30
2022-12-31T11:52:52.115Z,1.20
2022-12-31T11:55:38.542Z,1.00
2022-12-31T11:58:20.755Z,0.90
2022-12-31T12:01:10.835Z,2.13
2022-12-31T12:03:42.588Z,1.40
2022-12-31T12:06:19.996Z,2.13
2022-12-31T12:08:47.697Z,0.70
2022-12-31T12:11:32.166Z,1.73
2022-12-31T12:13:59.207Z,1.10
2022-12-31T12:16:28.169Z,3.70
2022-12-31T12:19:17.365Z,3.10
2022-12-31T12:21:49.222Z,1.30
2022-12-31T12:24:36.469Z,3.03
2022-12-31T12:27:03.655Z,0.97
2022-12-31T12:29:34.532Z,1.10
2022-12-31T12:32:18.139Z,1.40
2022-12-31T12:34:49.657Z,2.60
2022-12-31T12:37:37.376Z,0.90
2022-12-31T12:40:29.761Z,2.80
2022-12-31T12:43:01.181Z,1.40
2022-12-31T12:45:51.460Z,1.93
2022-12-31T12:48:41.801Z,1.10
2022-12-31T12:51:45.371Z,0.80
2022-12-31T12:54:25.277Z,3.60
2022-12-31T12:57:04.067Z,1.30
2022-12-31T12:59:55.699Z,5.63
2022-12-31T13:02:50.624Z,0.80
2022-12-31T13:05:44.706Z,2.30
2022-12-31T13:08:54.615Z,3.90
2022-12-31T13:11:41.904Z,1.00
2022-12-31T13:14:51.045Z,1.10
2022-12-31T13:17:29.654Z,1.17
2022-12-31T13:20:19.562Z,2.00
2022-12-31T13:23:01.536Z,2.07
2022-12-31T13:25:56.176Z,0.80
2022-12-31T13:28:25.378Z,1.80
2022-12-31T13:31:07.937Z,0.80
2022-12-31T13:33:43.152Z,1.33
2022-12-31T13:36:17.497Z,1.10
2022-12-31T13:39:02.566Z,0.80
2022-12-31T13:41:43.560Z,0.80
2022-12-31T13:44:49.820Z,3.60
2022-12-31T13:47:37.574Z,1.47
2022-12-31T13:50:31.585Z,2.50
2022-12-31T13:52:58.467Z,1.40
2022-12-31T13:55:34.092Z,0.90
2022-12-31T13:58:23.423Z,4.40
2022-12-31T14:01:03.622Z,2.60
2022-12-31T14:03:57.376Z,1.43
2022-12-31T14:06:36.522Z,2.60
2022-12-31T14:09:06.072Z,2.17
2022-12-31T14:12:00.560Z,1.03
2022-12-31T14:14:48.928Z,2.30
2022-12-31T14:17:36.496Z,4.80
2022-12-31T14:20:16.370Z,0.90
2022-12-31T14:23:03.089Z,1.40
2022-12-31T14:25:48.783Z,2.63
2022-12-31T14:28:48.267Z,0.90
2022-12-31T14:31:50.163Z,3.80
2022-12-31T14:35:13.172Z,1.83
2022-12-31T14:38:04.379Z,1.17
2022-12-31T14:40:58.842Z,2.10
2022-12-31T14:43:43.788Z,1.23
2022-12-31T14:46:30.360Z,3.67
2022-12-31T14:49:42.819Z,2.03
2022-12-31T14:52:26.693Z,4.40
2022-12-31T14:55:08.658Z,1.37
2022-12-31T14:58:16.747Z,1.53
2022-12-31T15:00:31.449Z,1.20
2022-12-31T15:03:15.510Z,2.20
2022-12-31T15:06:02.081Z,0.93
2022-12-31T15:08:59.937Z,1.33
2022-12-31T15:11:58.084Z,1.10
2022-12-31T15:14:58.967Z,1.40
2022-12-31T15:17:52.792Z,1.67
2022-12-31T15:20:44.636Z,1.33
2022-12-31T15:23:36.318Z,1.40
2022-12-31T15:26:06.283Z,3.07
2022-12-31T15:28:34.808Z,3.80
2022-12-31T15:31:19.077Z,2.90
2022-12-31T15:33:57.147Z,3.80
2022-12-31T15:36:35.995Z,2.37
2022-12-31T15:39:11.954Z,1.80
2022-12-31T15:42:18.719Z,1.13
2022-12-31T15:44:55.225Z,1.27
2022-12-31T15:47:40.310Z,2.90
2022-12-31T15:50:16.994Z,1.10
2022-12-31T15:52:54.729Z,1.63
2022-12-31T15:55:38.732Z,1.93
2022-12-31T15:58:14.363Z,1.30
2022-12-31T16:01:15.582Z,1.00
2022-12-31T16:04:28.346Z,1.10
2022-12-31T16:07:03.547Z,1.07
2022-12-31T16:09:34.748Z,3.77
2022-12-31T16:12:10.386Z,0.80
2022-12-31T16:14:45.004Z,1.23
2022-12-31T16:17:41.837Z,1.10
2022-12-31T16:20:30.327Z,2.10
2022-12-31T16:23:42.042Z,1.00
2022-12-31T16:26:11.032Z,4.77
2022-12-31T16:28:38.140Z,3.63
2022-12-31T16:31:08.264Z,2.50
2022-12-31T16:33:37.335Z,1.20
2022-12-31T16:36:05.230Z,4.20
2022-12-31T16:38:36.543Z,4.43
2022-12-31T16:41:42.574Z,1.73
2022-12-31T16:44:28.196Z,2.20
2022-12-31T16:47:01.843Z,1.73
2022-12-31T16:49:32.142Z,1.30
2022-12-31T16:52:05.604Z,1.30
2022-12-31T16:54:40.727Z,1.40
2022-12-31T16:57:10.939Z,1.13
2022-12-31T16:59:45.362Z,1.27
2022-12-31T17:02:45.656Z,1.10
2022-12-31T17:05:24.865Z,1.30
2022-12-31T17:07:52.441Z,1.93
2022-12-31T17:10:34.512Z,3.67
2022-12-31T17:15:53.271Z,4.53
2022-12-31T17:18:36.407Z,2.67
2022-12-31T17:21:11.128Z,2.07
2022-12-31T17:23:42.052Z,4.33
2022-12-31T17:26:15.431Z,6.83
2022-12-31T17:28:46.635Z,7.30
2022-12-31T17:31:30.923Z,5.53
2022-12-31T17:34:24.141Z,3.90
2022-12-31T17:37:09.460Z,8.33
2022-12-31T17:39:48.421Z,10.90
2022-12-31T17:42:47.485Z,13.90
2022-12-31T17:45:22.347Z,3.83
2022-12-31T17:47:52.359Z,3.17
2022-12-31T17:50:23.691Z,2.13
2022-12-31T17:52:53.021Z,25.30
2022-12-31T17:55:19.916Z,2.23
2022-12-31T17:57:54.211Z,1.40
2022-12-31T18:00:28.520Z,1.83
2022-12-31T18:02:55.669Z,2.30
2022-12-31T18:05:24.592Z,4.47
2022-12-31T18:07:52.636Z,9.63
2022-12-31T18:10:23.329Z,7.23
2022-12-31T18:12:50.963Z,6.43
2022-12-31T18:15:24.492Z,2.60
2022-12-31T18:17:51.667Z,1.80
2022-12-31T18:20:19.015Z,2.07
2022-12-31T18:22:46.212Z,2.90
2022-12-31T18:25:22.265Z,1.43
2022-12-31T18:27:50.821Z,1.20
2022-12-31T18:30:18.443Z,1.23
2022-12-31T18:32:46.685Z,1.37
2022-12-31T18:36:06.584Z,2.47
2022-12-31T18:38:16.054Z,1.60
2022-12-31T18:41:00.084Z,1.70
2022-12-31T18:43:27.036Z,1.97
2022-12-31T18:45:54.128Z,5.53
2022-12-31T18:48:26.125Z,6.10
2022-12-31T18:50:53.078Z,12.20
2022-12-31T18:53:24.253Z,9.27
2022-12-31T18:55:56.923Z,8.30
2022-12-31T18:58:24.341Z,8.57
2022-12-31T19:00:52.129Z,5.57
2022-12-31T19:03:24.730Z,9.70
2022-12-31T19:05:54.736Z,11.70
2022-12-31T19:08:24.017Z,9.80
2022-12-31T19:10:58.224Z,7.27
2022-12-31T19:13:33.270Z,4.83
2022-12-31T19:16:02.419Z,4.60
2022-12-31T19:18:30.491Z,11.13
2022-12-31T19:21:01.736Z,11.63
2022-12-31T19:23:28.692Z,7.23
2022-12-31T19:25:56.621Z,6.50
2022-12-31T19:28:27.412Z,5.37
2022-12-31T19:30:57.384Z,5.27
2022-12-31T19:33:25.525Z,4.03
2022-12-31T19:35:52.517Z,3.17
2022-12-31T19:38:26.508Z,2.60
2022-12-31T19:40:54.377Z,3.40
2022-12-31T19:43:29.504Z,2.30
2022-12-31T19:45:56.642Z,6.50
2022-12-31T19:48:32.355Z,5.43
2022-12-31T19:51:11.881Z,4.00
2022-12-31T19:53:39.184Z,5.57
2022-12-31T19:56:06.582Z,5.70
2022-12-31T19:58:33.586Z,3.00
2022-12-31T20:01:03.307Z,2.20
2022-12-31T20:03:32.861Z,2.40
2022-12-31T20:06:10.273Z,4.17
2022-12-31T20:08:48.299Z,6.40
2022-12-31T20:11:24.333Z,7.63
2022-12-31T20:13:53.856Z,6.70
2022-12-31T20:16:26.858Z,8.37
2022-12-31T20:18:55.136Z,6.63
2022-12-31T20:21:26.105Z,4.30
2022-12-31T20:23:57.199Z,4.90
2022-12-31T20:26:26.065Z,3.97
2022-12-31T20:29:04.112Z,4.00
2022-12-31T20:31:30.976Z,3.87
2022-12-31T20:33:57.992Z,5.13
2022-12-31T20:36:31.119Z,5.23
2022-12-31T20:39:01.998Z,3.60
2022-12-31T20:41:28.987Z,4.37
2022-12-31T20:43:55.871Z,7.10
2022-12-31T20:46:26.069Z,6.03
2022-12-31T20:48:58.430Z,4.90
2022-12-31T20:51:33.192Z,4.20
2022-12-31T20:54:06.237Z,5.00
2022-12-31T20:56:37.564Z,4.03
2022-12-31T20:59:06.571Z,4.10
2022-12-31T21:02:11.191Z,4.50
2022-12-31T21:04:20.829Z,3.87
2022-12-31T21:06:48.098Z,5.40
2022-12-31T21:09:21.151Z,3.73
2022-12-31T21:12:17.372Z,3.37
2022-12-31T21:14:44.987Z,3.07
2022-12-31T21:17:12.194Z,4.73
2022-12-31T21:19:39.125Z,4.10
2022-12-31T21:22:06.150Z,6.27
2022-12-31T21:24:33.110Z,4.87
2022-12-31T21:27:01.079Z,4.70
2022-12-31T21:29:41.839Z,4.90
2022-12-31T21:32:19.347Z,2.80
2022-12-31T21:35:00.186Z,3.50
2022-12-31T21:37:58.275Z,3.37
2022-12-31T21:40:20.108Z,5.23
2022-12-31T21:43:05.956Z,4.87
2022-12-31T21:45:37.112Z,4.17
2022-12-31T21:48:21.828Z,3.40
2022-12-31T21:50:53.526Z,6.23
2022-12-31T21:53:26.255Z,5.30
2022-12-31T21:56:16.049Z,4.03
2022-12-31T21:59:14.179Z,3.77
2022-12-31T22:02:02.265Z,3.80
2022-12-31T22:05:02.033Z,6.13
2022-12-31T22:07:16.637Z,8.53
2022-12-31T22:09:43.547Z,10.43
2022-12-31T22:12:10.561Z,8.63
2022-12-31T22:14:37.549Z,6.00
2022-12-31T22:17:04.605Z,5.70
2022-12-31T22:19:33.590Z,7.50
2022-12-31T22:22:06.351Z,8.27
2022-12-31T22:24:33.226Z,6.80
2022-12-31T22:27:00.482Z,5.40
2022-12-31T22:29:47.347Z,4.13
2022-12-31T22:32:19.337Z,3.30
2022-12-31T22:34:49.376Z,3.83
2022-12-31T22:37:46.518Z,3.43
2022-12-31T22:40:03.800Z,3.83
2022-12-31T22:42:30.800Z,4.50
2022-12-31T22:44:57.674Z,3.77
2022-12-31T22:47:26.641Z,4.03
2022-12-31T22:49:53.536Z,5.13
2022-12-31T22:52:20.420Z,6.17
2022-12-31T22:54:47.373Z,5.47
2022-12-31T22:57:20.235Z,6.10
2022-12-31T22:59:51.309Z,6.40
2022-12-31T23:02:19.314Z,12.33
2022-12-31T23:04:47.323Z,16.17
2022-12-31T23:07:14.264Z,123.13
2022-12-31T23:10:00.123Z,202.50
2022-12-31T23:12:27.113Z,85.47
2022-12-31T23:15:12.952Z,22.07
2022-12-31T23:17:58.172Z,16.23
2022-12-31T23:20:44.547Z,31.20
2022-12-31T23:23:20.838Z,20.20
2022-12-31T23:25:50.668Z,11.53
2022-12-31T23:28:26.640Z,13.97
2022-12-31T23:30:53.925Z,14.33
2022-12-31T23:33:24.495Z,17.40
2022-12-31T23:36:05.045Z,22.20
2022-12-31T23:38:31.990Z,22.53
2022-12-31T23:40:59.009Z,20.67
2022-12-31T23:43:26.060Z,20.40
2022-12-31T23:45:53.287Z,18.27
2022-12-31T23:48:20.588Z,16.50
2022-12-31T23:50:53.738Z,16.57
2022-12-31T23:53:22.953Z,15.00
2022-12-31T23:55:50.818Z,17.30
2022-12-31T23:58:17.963Z,11.30
